DLH98J EDDM-LPFR
Flight info
| Callsign | DLH98J |
|---|---|
| Flight time | N/A |
| Altitude | 35000 |
| Route | ALG2E/08R ALG Y109 UMTEX Y100 TRA DCT LUTIX DCT BENOT DCT NEMOS DCT NINTU DCT MEBAK DCT REPSI DCT LERGA DCT MINSO DCT NARAK DCT AGN DCT LATEK DCT PPN DCT MIRPO DCT DGO DCT NEA L14 ADINO DCT ELVAR DCT ALAGU DCT USALU |
| Aircraft | A320/M-SDE2E3FGIJ1LORWXYZ/HB1 |
Departure
| Time | N/A |
|---|---|
| Airport | Munich Airport (EDDM) |
Arrival
| Time | 2026-05-01 09:42 |
|---|---|
| Airport | Faro - Gago Coutinho International Airport (LPFR) |
| Time | Latitude | Longitude | Altitude | Speed | Heading |
|---|---|---|---|---|---|
| 2026-05-01 07:23 | 47.15173 | 7.34454 | 35340 ft | 462 kts | 232° |
| 2026-05-01 07:24 | 47.09162 | 7.23389 | 35343 ft | 462 kts | 230° |
| 2026-05-01 07:24 | 47.05140 | 7.16137 | 35344 ft | 461 kts | 231° |
| 2026-05-01 07:25 | 47.01129 | 7.08815 | 35360 ft | 460 kts | 231° |
| 2026-05-01 07:25 | 46.97138 | 7.01489 | 35368 ft | 460 kts | 231° |
| 2026-05-01 07:26 | 46.93146 | 6.94192 | 35372 ft | 459 kts | 231° |
| 2026-05-01 07:26 | 46.89151 | 6.86925 | 35372 ft | 458 kts | 230° |
| 2026-05-01 07:27 | 46.85179 | 6.79738 | 35370 ft | 457 kts | 230° |
| 2026-05-01 07:27 | 46.81179 | 6.72531 | 35361 ft | 457 kts | 230° |
| 2026-05-01 07:28 | 46.77176 | 6.65338 | 35349 ft | 456 kts | 230° |
| 2026-05-01 07:28 | 46.73179 | 6.58162 | 35335 ft | 456 kts | 230° |
| 2026-05-01 07:29 | 46.69208 | 6.51048 | 35315 ft | 455 kts | 230° |
| 2026-05-01 07:29 | 46.65210 | 6.43900 | 35306 ft | 455 kts | 230° |
| 2026-05-01 07:30 | 46.61207 | 6.36767 | 35300 ft | 455 kts | 230° |
| 2026-05-01 07:30 | 46.57199 | 6.29646 | 35296 ft | 455 kts | 229° |
| 2026-05-01 07:31 | 46.53190 | 6.22543 | 35302 ft | 455 kts | 229° |
| 2026-05-01 07:32 | 46.43175 | 6.04878 | 35321 ft | 454 kts | 229° |
| 2026-05-01 07:33 | 46.37150 | 5.94307 | 35326 ft | 453 kts | 229° |
| 2026-05-01 07:33 | 46.31154 | 5.83817 | 35327 ft | 452 kts | 229° |
| 2026-05-01 07:34 | 46.25137 | 5.73339 | 35328 ft | 451 kts | 229° |
| 2026-05-01 07:35 | 46.21127 | 5.66385 | 35310 ft | 450 kts | 228° |
| 2026-05-01 07:35 | 46.17150 | 5.59505 | 35300 ft | 449 kts | 228° |
| 2026-05-01 07:36 | 46.13326 | 5.52398 | 35300 ft | 449 kts | 233° |
| 2026-05-01 07:36 | 46.09793 | 5.44990 | 35294 ft | 448 kts | 233° |
| 2026-05-01 07:37 | 46.04475 | 5.33933 | 35290 ft | 447 kts | 233° |
| 2026-05-01 07:37 | 46.00958 | 5.26642 | 35286 ft | 446 kts | 233° |
| 2026-05-01 07:38 | 45.97415 | 5.19317 | 35285 ft | 446 kts | 233° |
| 2026-05-01 07:39 | 45.92101 | 5.08365 | 35286 ft | 445 kts | 233° |
| 2026-05-01 07:39 | 45.86809 | 4.97503 | 35289 ft | 444 kts | 233° |
| 2026-05-01 07:40 | 45.83270 | 4.90253 | 35290 ft | 443 kts | 234° |
| 2026-05-01 07:40 | 45.79734 | 4.83025 | 35291 ft | 443 kts | 234° |
| 2026-05-01 07:41 | 45.76194 | 4.75818 | 35294 ft | 442 kts | 234° |
| 2026-05-01 07:42 | 45.70911 | 4.65107 | 35296 ft | 440 kts | 234° |
| 2026-05-01 07:42 | 45.67379 | 4.57967 | 35298 ft | 439 kts | 234° |
| 2026-05-01 07:43 | 45.63857 | 4.50850 | 35298 ft | 438 kts | 235° |
| 2026-05-01 07:43 | 45.58591 | 4.40239 | 35299 ft | 435 kts | 235° |
| 2026-05-01 07:44 | 45.51619 | 4.26247 | 35296 ft | 433 kts | 235° |
| 2026-05-01 07:45 | 45.48121 | 4.19271 | 35296 ft | 432 kts | 235° |
| 2026-05-01 07:45 | 45.44624 | 4.12335 | 35295 ft | 430 kts | 235° |
| 2026-05-01 07:46 | 45.41140 | 4.05415 | 35292 ft | 429 kts | 235° |
| 2026-05-01 07:47 | 45.35944 | 3.95128 | 35292 ft | 428 kts | 235° |
| 2026-05-01 07:47 | 45.32464 | 3.88261 | 35302 ft | 428 kts | 235° |
| 2026-05-01 07:48 | 45.27244 | 3.77999 | 35301 ft | 427 kts | 235° |
| 2026-05-01 07:48 | 45.23801 | 3.71203 | 35300 ft | 427 kts | 236° |
| 2026-05-01 07:49 | 45.18722 | 3.60825 | 35296 ft | 427 kts | 237° |
| 2026-05-01 07:50 | 45.15340 | 3.53907 | 35292 ft | 427 kts | 236° |
| 2026-05-01 07:50 | 45.10220 | 3.43577 | 35289 ft | 427 kts | 236° |
| 2026-05-01 07:51 | 45.06818 | 3.36750 | 35286 ft | 427 kts | 236° |
| 2026-05-01 07:52 | 45.01678 | 3.26439 | 35281 ft | 428 kts | 236° |
| 2026-05-01 07:52 | 44.98241 | 3.19572 | 35278 ft | 428 kts | 236° |
| 2026-05-01 07:53 | 44.93102 | 3.09308 | 35274 ft | 429 kts | 236° |
| 2026-05-01 07:53 | 44.89649 | 3.02438 | 35275 ft | 429 kts | 236° |
| 2026-05-01 07:55 | 44.81162 | 2.85204 | 35266 ft | 429 kts | 239° |
| 2026-05-01 07:56 | 44.73060 | 2.67538 | 35263 ft | 430 kts | 236° |
| 2026-05-01 07:57 | 44.67688 | 2.57476 | 35261 ft | 431 kts | 234° |
| 2026-05-01 07:58 | 44.60460 | 2.44018 | 35257 ft | 432 kts | 235° |
| 2026-05-01 07:59 | 44.53293 | 2.30478 | 35259 ft | 433 kts | 234° |
| 2026-05-01 08:00 | 44.42487 | 2.10268 | 35242 ft | 434 kts | 234° |
| 2026-05-01 08:01 | 44.35268 | 1.96818 | 35236 ft | 434 kts | 234° |
| 2026-05-01 08:02 | 44.29803 | 1.86705 | 35228 ft | 435 kts | 234° |
| 2026-05-01 08:03 | 44.24329 | 1.76583 | 35230 ft | 436 kts | 234° |
| 2026-05-01 08:03 | 44.18865 | 1.66519 | 35221 ft | 436 kts | 234° |
| 2026-05-01 08:04 | 44.11529 | 1.53060 | 35219 ft | 437 kts | 233° |
| 2026-05-01 08:05 | 44.06036 | 1.43018 | 35217 ft | 437 kts | 233° |
| 2026-05-01 08:06 | 44.00500 | 1.32946 | 35216 ft | 437 kts | 233° |
| 2026-05-01 08:07 | 43.93133 | 1.19572 | 35215 ft | 438 kts | 233° |
| 2026-05-01 08:08 | 43.87580 | 1.09519 | 35218 ft | 437 kts | 233° |
| 2026-05-01 08:09 | 43.80152 | 0.96171 | 35217 ft | 437 kts | 232° |
| 2026-05-01 08:09 | 43.76464 | 0.89544 | 35222 ft | 437 kts | 232° |
| 2026-05-01 08:10 | 43.69037 | 0.76255 | 35226 ft | 436 kts | 232° |
| 2026-05-01 08:11 | 43.61620 | 0.63051 | 35218 ft | 437 kts | 232° |
| 2026-05-01 08:12 | 43.56021 | 0.53124 | 35212 ft | 437 kts | 232° |
| 2026-05-01 08:13 | 43.50401 | 0.43193 | 35208 ft | 438 kts | 232° |
| 2026-05-01 08:13 | 43.44785 | 0.33311 | 35210 ft | 439 kts | 232° |
| 2026-05-01 08:14 | 43.41018 | 0.26698 | 35214 ft | 439 kts | 231° |
| 2026-05-01 08:14 | 43.37243 | 0.20092 | 35217 ft | 439 kts | 231° |
| 2026-05-01 08:15 | 43.31574 | 0.10193 | 35224 ft | 439 kts | 231° |
| 2026-05-01 08:16 | 43.27820 | 0.03653 | 35226 ft | 439 kts | 231° |
| 2026-05-01 08:16 | 43.24042 | -0.02917 | 35221 ft | 438 kts | 231° |
| 2026-05-01 08:17 | 43.20260 | -0.09477 | 35226 ft | 438 kts | 231° |
| 2026-05-01 08:17 | 43.16480 | -0.16023 | 35223 ft | 438 kts | 231° |
| 2026-05-01 08:18 | 43.12726 | -0.22511 | 35220 ft | 438 kts | 231° |
| 2026-05-01 08:19 | 43.05156 | -0.35536 | 35217 ft | 437 kts | 231° |
| 2026-05-01 08:19 | 43.01369 | -0.42030 | 35218 ft | 437 kts | 231° |
| 2026-05-01 08:20 | 42.97586 | -0.48511 | 35218 ft | 436 kts | 231° |
| 2026-05-01 08:20 | 42.93822 | -0.54940 | 35218 ft | 436 kts | 231° |
| 2026-05-01 08:21 | 42.90042 | -0.61406 | 35216 ft | 436 kts | 233° |
| 2026-05-01 08:21 | 42.87272 | -0.68724 | 35216 ft | 437 kts | 252° |
| 2026-05-01 08:22 | 42.85933 | -0.76806 | 35214 ft | 436 kts | 250° |
| 2026-05-01 08:22 | 42.83461 | -0.84272 | 35206 ft | 435 kts | 244° |
| 2026-05-01 08:23 | 42.80861 | -0.91716 | 35204 ft | 435 kts | 244° |
| 2026-05-01 08:23 | 42.78251 | -0.99148 | 35206 ft | 435 kts | 243° |
| 2026-05-01 08:24 | 42.75636 | -1.06570 | 35204 ft | 435 kts | 244° |
| 2026-05-01 08:24 | 42.73044 | -1.13947 | 35210 ft | 435 kts | 244° |
| 2026-05-01 08:25 | 42.70434 | -1.21367 | 35209 ft | 435 kts | 244° |
| 2026-05-01 08:25 | 42.67818 | -1.28778 | 35207 ft | 435 kts | 244° |
| 2026-05-01 08:26 | 42.65188 | -1.36172 | 35210 ft | 434 kts | 244° |
| 2026-05-01 08:26 | 42.62559 | -1.43556 | 35215 ft | 434 kts | 244° |
| 2026-05-01 08:27 | 42.59949 | -1.50893 | 35217 ft | 434 kts | 244° |
| 2026-05-01 08:27 | 42.57317 | -1.58272 | 35228 ft | 435 kts | 244° |
| 2026-05-01 08:28 | 42.54674 | -1.65638 | 35225 ft | 434 kts | 244° |
| 2026-05-01 08:28 | 42.52031 | -1.72991 | 35224 ft | 434 kts | 244° |
| 2026-05-01 08:29 | 42.49407 | -1.80285 | 35215 ft | 433 kts | 244° |
| 2026-05-01 08:29 | 42.46753 | -1.87619 | 35210 ft | 433 kts | 244° |
| 2026-05-01 08:30 | 42.44095 | -1.94946 | 35213 ft | 434 kts | 244° |
| 2026-05-01 08:30 | 42.41440 | -2.02273 | 35212 ft | 434 kts | 244° |
| 2026-05-01 08:31 | 42.38800 | -2.09557 | 35208 ft | 434 kts | 244° |
| 2026-05-01 08:31 | 42.36132 | -2.16879 | 35216 ft | 434 kts | 244° |
| 2026-05-01 08:32 | 42.33452 | -2.24196 | 35217 ft | 434 kts | 243° |
| 2026-05-01 08:32 | 42.30763 | -2.31500 | 35210 ft | 434 kts | 243° |
| 2026-05-01 08:33 | 42.28091 | -2.38760 | 35207 ft | 435 kts | 243° |
| 2026-05-01 08:33 | 42.25394 | -2.46068 | 35203 ft | 435 kts | 243° |
| 2026-05-01 08:34 | 42.22692 | -2.53368 | 35195 ft | 435 kts | 243° |
| 2026-05-01 08:34 | 42.19987 | -2.60670 | 35192 ft | 435 kts | 243° |
| 2026-05-01 08:35 | 42.17299 | -2.67922 | 35190 ft | 435 kts | 243° |
| 2026-05-01 08:35 | 42.14588 | -2.75215 | 35188 ft | 435 kts | 243° |
| 2026-05-01 08:36 | 42.11866 | -2.82502 | 35189 ft | 435 kts | 243° |
| 2026-05-01 08:36 | 42.09140 | -2.89783 | 35189 ft | 435 kts | 243° |
| 2026-05-01 08:37 | 42.06425 | -2.97007 | 35191 ft | 435 kts | 243° |
| 2026-05-01 08:37 | 42.03694 | -3.04265 | 35191 ft | 435 kts | 243° |
| 2026-05-01 08:38 | 42.00961 | -3.11515 | 35187 ft | 435 kts | 243° |
| 2026-05-01 08:38 | 41.98217 | -3.18765 | 35178 ft | 435 kts | 243° |
| 2026-05-01 08:39 | 41.95486 | -3.25951 | 35176 ft | 435 kts | 244° |
| 2026-05-01 08:39 | 41.92736 | -3.33200 | 35169 ft | 435 kts | 244° |
| 2026-05-01 08:40 | 41.88601 | -3.44068 | 35163 ft | 436 kts | 244° |
| 2026-05-01 08:40 | 41.85823 | -3.51313 | 35161 ft | 437 kts | 244° |
| 2026-05-01 08:41 | 41.83055 | -3.58505 | 35160 ft | 437 kts | 244° |
| 2026-05-01 08:41 | 41.80271 | -3.65752 | 35158 ft | 437 kts | 244° |
| 2026-05-01 08:42 | 41.77487 | -3.73000 | 35164 ft | 438 kts | 244° |
| 2026-05-01 08:42 | 41.74687 | -3.80243 | 35157 ft | 438 kts | 244° |
| 2026-05-01 08:43 | 41.71900 | -3.87436 | 35163 ft | 438 kts | 244° |
| 2026-05-01 08:43 | 41.69088 | -3.94675 | 35163 ft | 438 kts | 244° |
| 2026-05-01 08:44 | 41.66269 | -4.01907 | 35165 ft | 438 kts | 244° |
| 2026-05-01 08:44 | 41.63446 | -4.09134 | 35172 ft | 438 kts | 244° |
| 2026-05-01 08:45 | 41.60628 | -4.16361 | 35170 ft | 438 kts | 244° |
| 2026-05-01 08:45 | 41.57817 | -4.23520 | 35172 ft | 438 kts | 244° |
| 2026-05-01 08:46 | 41.54984 | -4.30721 | 35175 ft | 438 kts | 244° |
| 2026-05-01 08:46 | 41.52154 | -4.37915 | 35176 ft | 438 kts | 244° |
| 2026-05-01 08:47 | 41.49315 | -4.45095 | 35173 ft | 437 kts | 243° |
| 2026-05-01 08:47 | 41.46494 | -4.52212 | 35182 ft | 437 kts | 243° |
| 2026-05-01 08:48 | 41.43653 | -4.59365 | 35183 ft | 436 kts | 243° |
| 2026-05-01 08:48 | 41.40818 | -4.66500 | 35183 ft | 436 kts | 243° |
| 2026-05-01 08:49 | 41.37975 | -4.73620 | 35186 ft | 435 kts | 243° |
| 2026-05-01 08:49 | 41.35150 | -4.80678 | 35183 ft | 434 kts | 243° |
| 2026-05-01 08:50 | 41.32301 | -4.87761 | 35183 ft | 434 kts | 243° |
| 2026-05-01 08:50 | 41.29358 | -4.94764 | 35184 ft | 434 kts | 236° |
| 2026-05-01 08:51 | 41.25219 | -5.00583 | 35180 ft | 435 kts | 221° |
| 2026-05-01 08:51 | 41.20637 | -5.05756 | 35181 ft | 435 kts | 221° |
| 2026-05-01 08:52 | 41.16030 | -5.10965 | 35181 ft | 435 kts | 221° |
| 2026-05-01 08:52 | 41.11429 | -5.16171 | 35183 ft | 434 kts | 221° |
| 2026-05-01 08:53 | 41.06829 | -5.21370 | 35196 ft | 434 kts | 221° |
| 2026-05-01 08:53 | 41.02236 | -5.26553 | 35191 ft | 434 kts | 221° |
| 2026-05-01 08:54 | 40.97666 | -5.31687 | 35201 ft | 434 kts | 221° |
| 2026-05-01 08:54 | 40.93068 | -5.36846 | 35207 ft | 433 kts | 221° |
| 2026-05-01 08:55 | 40.88474 | -5.41998 | 35205 ft | 433 kts | 221° |
| 2026-05-01 08:55 | 40.83879 | -5.47137 | 35201 ft | 432 kts | 221° |
| 2026-05-01 08:56 | 40.79315 | -5.52221 | 35205 ft | 432 kts | 221° |
| 2026-05-01 08:56 | 40.74719 | -5.57330 | 35196 ft | 432 kts | 221° |
| 2026-05-01 08:57 | 40.70133 | -5.62441 | 35185 ft | 432 kts | 221° |
| 2026-05-01 08:57 | 40.65545 | -5.67541 | 35184 ft | 431 kts | 221° |
| 2026-05-01 08:58 | 40.60983 | -5.72588 | 35173 ft | 431 kts | 221° |
| 2026-05-01 08:58 | 40.56387 | -5.77661 | 35181 ft | 431 kts | 221° |
| 2026-05-01 08:59 | 40.51791 | -5.82729 | 35180 ft | 431 kts | 221° |
| 2026-05-01 08:59 | 40.47198 | -5.87790 | 35175 ft | 431 kts | 221° |
| 2026-05-01 09:00 | 40.42635 | -5.92812 | 35175 ft | 431 kts | 221° |
| 2026-05-01 09:00 | 40.38042 | -5.97860 | 35181 ft | 431 kts | 221° |
| 2026-05-01 09:01 | 40.33451 | -6.02897 | 35181 ft | 430 kts | 221° |
| 2026-05-01 09:01 | 40.28854 | -6.07921 | 35180 ft | 430 kts | 221° |
| 2026-05-01 09:02 | 40.24288 | -6.12904 | 35178 ft | 430 kts | 221° |
| 2026-05-01 09:02 | 40.19694 | -6.17916 | 35185 ft | 430 kts | 221° |
| 2026-05-01 09:03 | 40.15094 | -6.22920 | 35179 ft | 430 kts | 221° |
| 2026-05-01 09:03 | 40.10497 | -6.27912 | 35185 ft | 430 kts | 221° |
| 2026-05-01 09:04 | 40.05927 | -6.32862 | 35179 ft | 429 kts | 221° |
| 2026-05-01 09:04 | 40.01332 | -6.37836 | 35180 ft | 429 kts | 221° |
| 2026-05-01 09:05 | 39.96739 | -6.42806 | 35182 ft | 429 kts | 221° |
| 2026-05-01 09:05 | 39.92143 | -6.47757 | 35184 ft | 429 kts | 221° |
| 2026-05-01 09:06 | 39.87548 | -6.52698 | 35184 ft | 428 kts | 221° |
| 2026-05-01 09:06 | 39.82983 | -6.57594 | 35182 ft | 428 kts | 221° |
| 2026-05-01 09:07 | 39.78391 | -6.62518 | 35182 ft | 427 kts | 221° |
| 2026-05-01 09:07 | 39.73805 | -6.67434 | 35187 ft | 427 kts | 221° |
| 2026-05-01 09:08 | 39.69221 | -6.72337 | 35183 ft | 427 kts | 221° |
| 2026-05-01 09:08 | 39.64667 | -6.77193 | 35185 ft | 426 kts | 221° |
| 2026-05-01 09:09 | 39.60087 | -6.82066 | 35182 ft | 426 kts | 221° |
| 2026-05-01 09:09 | 39.55510 | -6.86933 | 35183 ft | 425 kts | 221° |
| 2026-05-01 09:10 | 39.50937 | -6.91782 | 35187 ft | 425 kts | 221° |
| 2026-05-01 09:10 | 39.46397 | -6.96586 | 35186 ft | 424 kts | 221° |
| 2026-05-01 09:11 | 39.41833 | -7.01405 | 35184 ft | 423 kts | 222° |
| 2026-05-01 09:11 | 39.37270 | -7.06216 | 35182 ft | 423 kts | 222° |
| 2026-05-01 09:12 | 39.32715 | -7.11015 | 35180 ft | 422 kts | 222° |
| 2026-05-01 09:12 | 39.28160 | -7.15805 | 35184 ft | 422 kts | 222° |
| 2026-05-01 09:13 | 39.23607 | -7.20492 | 35181 ft | 423 kts | 217° |
| 2026-05-01 09:13 | 39.18226 | -7.23665 | 35176 ft | 432 kts | 199° |
| 2026-05-01 09:14 | 39.12416 | -7.25670 | 35175 ft | 432 kts | 200° |
| 2026-05-01 09:14 | 39.06613 | -7.27697 | 35171 ft | 432 kts | 200° |
| 2026-05-01 09:15 | 39.00854 | -7.29722 | 35168 ft | 432 kts | 200° |
| 2026-05-01 09:15 | 38.95055 | -7.31750 | 35165 ft | 432 kts | 200° |
| 2026-05-01 09:16 | 38.89254 | -7.33765 | 35162 ft | 432 kts | 200° |
| 2026-05-01 09:16 | 38.86355 | -7.34773 | 34886 ft | 430 kts | 201° |
| 2026-05-01 09:17 | 38.80560 | -7.36792 | 33339 ft | 433 kts | 201° |
| 2026-05-01 09:17 | 38.77686 | -7.37792 | 32490 ft | 435 kts | 201° |
| 2026-05-01 09:17 | 38.71801 | -7.39836 | 30727 ft | 441 kts | 200° |
| 2026-05-01 09:18 | 38.68829 | -7.40865 | 29758 ft | 444 kts | 200° |
| 2026-05-01 09:18 | 38.62909 | -7.42907 | 28353 ft | 436 kts | 200° |
| 2026-05-01 09:19 | 38.57108 | -7.44908 | 27052 ft | 428 kts | 200° |
| 2026-05-01 09:19 | 38.54248 | -7.45894 | 26437 ft | 424 kts | 199° |
| 2026-05-01 09:19 | 38.51451 | -7.46857 | 25837 ft | 420 kts | 199° |
| 2026-05-01 09:20 | 38.45862 | -7.48780 | 24673 ft | 412 kts | 199° |
| 2026-05-01 09:20 | 38.40369 | -7.50666 | 23514 ft | 405 kts | 199° |
| 2026-05-01 09:21 | 38.34977 | -7.52515 | 22284 ft | 397 kts | 199° |
| 2026-05-01 09:21 | 38.32321 | -7.53426 | 21702 ft | 394 kts | 198° |
| 2026-05-01 09:21 | 38.27110 | -7.55213 | 20609 ft | 387 kts | 198° |
| 2026-05-01 09:22 | 38.21956 | -7.56978 | 19567 ft | 381 kts | 198° |
| 2026-05-01 09:22 | 38.16860 | -7.58720 | 19166 ft | 379 kts | 198° |
| 2026-05-01 09:23 | 38.14308 | -7.59588 | 19189 ft | 380 kts | 198° |
| 2026-05-01 09:23 | 38.10062 | -7.61008 | 19189 ft | 381 kts | 195° |
| 2026-05-01 09:24 | 38.03905 | -7.61473 | 18611 ft | 380 kts | 183° |
| 2026-05-01 09:24 | 38.01266 | -7.61465 | 18066 ft | 378 kts | 183° |
| 2026-05-01 09:24 | 37.96042 | -7.61442 | 17023 ft | 372 kts | 182° |
| 2026-05-01 09:25 | 37.91764 | -7.61441 | 16217 ft | 368 kts | 182° |
| 2026-05-01 09:25 | 37.85872 | -7.61448 | 15142 ft | 361 kts | 182° |
| 2026-05-01 09:26 | 37.83367 | -7.61452 | 14690 ft | 359 kts | 182° |
| 2026-05-01 09:26 | 37.78406 | -7.61456 | 13775 ft | 354 kts | 181° |
| 2026-05-01 09:26 | 37.76780 | -7.61457 | 13436 ft | 352 kts | 181° |
| 2026-05-01 09:27 | 37.71916 | -7.61461 | 12458 ft | 346 kts | 181° |
| 2026-05-01 09:27 | 37.69514 | -7.61459 | 11965 ft | 343 kts | 181° |
| 2026-05-01 09:27 | 37.66370 | -7.61459 | 11307 ft | 340 kts | 181° |
| 2026-05-01 09:28 | 37.64021 | -7.61459 | 10926 ft | 334 kts | 181° |
| 2026-05-01 09:28 | 37.61746 | -7.61458 | 10804 ft | 320 kts | 181° |
| 2026-05-01 09:28 | 37.60289 | -7.61458 | 10727 ft | 312 kts | 181° |
| 2026-05-01 09:28 | 37.58157 | -7.61458 | 10600 ft | 301 kts | 181° |
| 2026-05-01 09:29 | 37.54118 | -7.61465 | 10315 ft | 281 kts | 181° |
| 2026-05-01 09:29 | 37.52173 | -7.61467 | 10035 ft | 278 kts | 181° |
| 2026-05-01 09:30 | 37.47702 | -7.61467 | 9183 ft | 275 kts | 181° |
| 2026-05-01 09:30 | 37.46410 | -7.61466 | 8924 ft | 274 kts | 180° |
| 2026-05-01 09:30 | 37.42637 | -7.61469 | 8175 ft | 272 kts | 180° |
| 2026-05-01 09:31 | 37.40747 | -7.61472 | 7816 ft | 271 kts | 180° |
| 2026-05-01 09:31 | 37.38867 | -7.61473 | 7457 ft | 270 kts | 180° |
| 2026-05-01 09:31 | 37.35123 | -7.61473 | 7185 ft | 270 kts | 180° |
| 2026-05-01 09:32 | 37.33331 | -7.61474 | 7186 ft | 271 kts | 180° |
| 2026-05-01 09:32 | 37.29555 | -7.61473 | 6674 ft | 268 kts | 180° |
| 2026-05-01 09:32 | 37.27720 | -7.61476 | 6303 ft | 267 kts | 180° |
| 2026-05-01 09:33 | 37.25864 | -7.61478 | 5913 ft | 266 kts | 180° |
| 2026-05-01 09:33 | 37.24013 | -7.61476 | 5557 ft | 266 kts | 180° |
| 2026-05-01 09:33 | 37.20332 | -7.61474 | 4827 ft | 264 kts | 180° |
| 2026-05-01 09:34 | 37.18499 | -7.61471 | 4428 ft | 263 kts | 180° |
| 2026-05-01 09:34 | 37.16673 | -7.61493 | 4075 ft | 261 kts | 185° |
| 2026-05-01 09:34 | 37.13147 | -7.62525 | 4028 ft | 264 kts | 194° |
| 2026-05-01 09:35 | 37.11365 | -7.63087 | 4029 ft | 264 kts | 194° |
| 2026-05-01 09:35 | 37.07822 | -7.64204 | 4021 ft | 254 kts | 194° |
| 2026-05-01 09:35 | 37.06165 | -7.64725 | 4024 ft | 237 kts | 194° |
| 2026-05-01 09:36 | 37.04613 | -7.65212 | 4022 ft | 227 kts | 194° |
| 2026-05-01 09:36 | 37.03089 | -7.65691 | 4024 ft | 225 kts | 194° |
| 2026-05-01 09:36 | 37.01571 | -7.66168 | 4025 ft | 225 kts | 194° |
| 2026-05-01 09:36 | 37.00053 | -7.66646 | 4023 ft | 225 kts | 194° |
| 2026-05-01 09:37 | 36.98598 | -7.67261 | 3983 ft | 223 kts | 213° |
| 2026-05-01 09:37 | 36.97683 | -7.70625 | 3342 ft | 220 kts | 281° |
| 2026-05-01 09:37 | 36.97976 | -7.72505 | 3052 ft | 219 kts | 281° |
| 2026-05-01 09:38 | 36.98506 | -7.76072 | 3010 ft | 201 kts | 280° |
| 2026-05-01 09:38 | 36.98752 | -7.77780 | 2880 ft | 197 kts | 280° |
| 2026-05-01 09:38 | 36.98987 | -7.79417 | 2650 ft | 191 kts | 280° |
| 2026-05-01 09:39 | 36.99447 | -7.82623 | 2159 ft | 182 kts | 280° |
| 2026-05-01 09:39 | 36.99668 | -7.84159 | 1902 ft | 177 kts | 280° |
| 2026-05-01 09:39 | 36.99879 | -7.85636 | 1662 ft | 167 kts | 280° |
| 2026-05-01 09:40 | 37.00075 | -7.87007 | 1456 ft | 153 kts | 280° |
| 2026-05-01 09:40 | 37.00435 | -7.89518 | 1050 ft | 143 kts | 279° |
| 2026-05-01 09:40 | 37.00612 | -7.90742 | 825 ft | 143 kts | 279° |
| 2026-05-01 09:41 | 37.00787 | -7.91942 | 623 ft | 143 kts | 278° |
| 2026-05-01 09:41 | 37.01129 | -7.94379 | 288 ft | 142 kts | 278° |
| 2026-05-01 09:41 | 37.01303 | -7.95593 | 125 ft | 142 kts | 278° |
| 2026-05-01 09:42 | 37.01469 | -7.96780 | 25 ft | 127 kts | 279° |
| 2026-05-01 09:42 | 37.01576 | -7.97537 | 20 ft | 46 kts | 280° |
| 2026-05-01 09:42 | 37.01709 | -7.97830 | 20 ft | 12 kts | 41° |
| 2026-05-01 09:43 | 37.01773 | -7.97662 | 21 ft | 9 kts | 78° |
| 2026-05-01 09:43 | 37.01769 | -7.97588 | 20 ft | 8 kts | 100° |
| 2026-05-01 09:43 | 37.01760 | -7.97525 | 20 ft | 7 kts | 100° |
| 2026-05-01 09:44 | 37.01829 | -7.97381 | 20 ft | 10 kts | 40° |
| 2026-05-01 09:44 | 37.01844 | -7.97327 | 20 ft | 6 kts | 100° |
| 2026-05-01 09:44 | 37.01838 | -7.97283 | 20 ft | 5 kts | 101° |
| 2026-05-01 09:45 | 37.01833 | -7.97248 | 20 ft | 4 kts | 100° |
| 2026-05-01 09:45 | 37.01820 | -7.97148 | 20 ft | 7 kts | 99° |
| 2026-05-01 09:45 | 37.01813 | -7.97096 | 22 ft | 5 kts | 99° |
| 2026-05-01 09:46 | 37.01808 | -7.97054 | 20 ft | 4 kts | 100° |
| 2026-05-01 09:46 | 37.01807 | -7.97022 | 20 ft | 3 kts | 72° |
| 2026-05-01 09:46 | 37.01826 | -7.97007 | 21 ft | 8 kts | 16° |
| 2026-05-01 09:46 | 37.01874 | -7.96996 | 20 ft | 6 kts | 10° |
| 2026-05-01 09:47 | 37.01911 | -7.96989 | 20 ft | 5 kts | 9° |
| 2026-05-01 09:47 | 37.01936 | -7.96983 | 20 ft | 2 kts | 9° |
| 2026-05-01 09:47 | 37.01941 | -7.96982 | 20 ft | 0 kts | 9° |